sensor_id;sensor_type;location;lat;lon;timestamp;pressure;altitude;pressure_sealevel;temperature;humidity
48846;BME280;34665;51.886;5.436;2022-08-19T00:01:41;101186.59;;;25.47;100.00
48846;BME280;34665;51.886;5.436;2022-08-19T00:04:09;101186.63;;;25.37;100.00
48846;BME280;34665;51.886;5.436;2022-08-19T00:06:37;101187.78;;;25.30;100.00
48846;BME280;34665;51.886;5.436;2022-08-19T00:09:05;101192.66;;;25.39;100.00
48846;BME280;34665;51.886;5.436;2022-08-19T00:11:31;101188.31;;;25.32;100.00
48846;BME280;34665;51.886;5.436;2022-08-19T00:13:57;101196.31;;;25.24;100.00
48846;BME280;34665;51.886;5.436;2022-08-19T00:16:24;101193.94;;;25.17;100.00
48846;BME280;34665;51.886;5.436;2022-08-19T00:18:50;101193.94;;;25.17;100.00
48846;BME280;34665;51.886;5.436;2022-08-19T00:21:15;101199.44;;;25.12;100.00
48846;BME280;34665;51.886;5.436;2022-08-19T00:23:42;101192.91;;;25.08;100.00
48846;BME280;34665;51.886;5.436;2022-08-19T00:26:09;101196.69;;;25.12;100.00
48846;BME280;34665;51.886;5.436;2022-08-19T00:28:35;101197.25;;;25.09;100.00
48846;BME280;34665;51.886;5.436;2022-08-19T00:31:02;101195.09;;;25.05;100.00
48846;BME280;34665;51.886;5.436;2022-08-19T00:33:30;101200.63;;;25.00;100.00
48846;BME280;34665;51.886;5.436;2022-08-19T00:36:02;101191.34;;;24.96;100.00
48846;BME280;34665;51.886;5.436;2022-08-19T00:38:30;101185.34;;;24.94;100.00
48846;BME280;34665;51.886;5.436;2022-08-19T00:40:56;101193.25;;;24.96;100.00
48846;BME280;34665;51.886;5.436;2022-08-19T00:43:23;101192.19;;;24.91;100.00
48846;BME280;34665;51.886;5.436;2022-08-19T00:45:49;101196.59;;;24.87;100.00
48846;BME280;34665;51.886;5.436;2022-08-19T00:48:16;101192.81;;;24.83;100.00
48846;BME280;34665;51.886;5.436;2022-08-19T00:50:43;101193.06;;;24.82;100.00
48846;BME280;34665;51.886;5.436;2022-08-19T00:53:11;101197.47;;;24.77;100.00
48846;BME280;34665;51.886;5.436;2022-08-19T00:55:38;101209.22;;;24.78;100.00
48846;BME280;34665;51.886;5.436;2022-08-19T00:58:10;101200.81;;;24.64;100.00
48846;BME280;34665;51.886;5.436;2022-08-19T01:00:37;101202.19;;;24.61;100.00
48846;BME280;34665;51.886;5.436;2022-08-19T01:03:05;101193.47;;;24.54;100.00
48846;BME280;34665;51.886;5.436;2022-08-19T01:05:32;101192.66;;;24.54;100.00
48846;BME280;34665;51.886;5.436;2022-08-19T01:07:59;101189.13;;;24.48;100.00
48846;BME280;34665;51.886;5.436;2022-08-19T01:10:29;101191.06;;;24.47;100.00
48846;BME280;34665;51.886;5.436;2022-08-19T01:12:58;101180.66;;;24.49;100.00
48846;BME280;34665;51.886;5.436;2022-08-19T01:15:29;101194.91;;;24.46;100.00
48846;BME280;34665;51.886;5.436;2022-08-19T01:17:57;101185.13;;;24.30;100.00
48846;BME280;34665;51.886;5.436;2022-08-19T01:20:25;101190.06;;;24.28;100.00
48846;BME280;34665;51.886;5.436;2022-08-19T01:22:52;101198.81;;;24.25;100.00
48846;BME280;34665;51.886;5.436;2022-08-19T01:25:22;101196.09;;;24.19;100.00
48846;BME280;34665;51.886;5.436;2022-08-19T01:27:50;101198.84;;;24.14;100.00
48846;BME280;34665;51.886;5.436;2022-08-19T01:30:28;101207.31;;;24.18;100.00
48846;BME280;34665;51.886;5.436;2022-08-19T01:32:55;101211.16;;;24.17;100.00
48846;BME280;34665;51.886;5.436;2022-08-19T01:35:23;101202.13;;;24.11;100.00
48846;BME280;34665;51.886;5.436;2022-08-19T01:37:55;101197.81;;;24.05;100.00
48846;BME280;34665;51.886;5.436;2022-08-19T01:40:24;101192.06;;;24.01;100.00
48846;BME280;34665;51.886;5.436;2022-08-19T01:42:50;101199.44;;;24.01;100.00
48846;BME280;34665;51.886;5.436;2022-08-19T01:45:17;101196.41;;;23.97;100.00
48846;BME280;34665;51.886;5.436;2022-08-19T01:47:43;101198.84;;;23.99;100.00
48846;BME280;34665;51.886;5.436;2022-08-19T01:50:09;101190.97;;;24.02;100.00
48846;BME280;34665;51.886;5.436;2022-08-19T01:52:38;101195.84;;;24.00;100.00
48846;BME280;34665;51.886;5.436;2022-08-19T01:55:06;101200.53;;;24.00;100.00
48846;BME280;34665;51.886;5.436;2022-08-19T01:57:32;101192.34;;;23.89;100.00
48846;BME280;34665;51.886;5.436;2022-08-19T01:59:58;101195.63;;;23.86;100.00
48846;BME280;34665;51.886;5.436;2022-08-19T02:02:25;101193.75;;;23.76;100.00
48846;BME280;34665;51.886;5.436;2022-08-19T02:04:51;101200.56;;;23.79;100.00
48846;BME280;34665;51.886;5.436;2022-08-19T02:07:19;101198.13;;;23.72;100.00
48846;BME280;34665;51.886;5.436;2022-08-19T02:09:46;101194.28;;;23.73;100.00
48846;BME280;34665;51.886;5.436;2022-08-19T02:12:14;101196.19;;;23.78;100.00
48846;BME280;34665;51.886;5.436;2022-08-19T02:14:40;101195.66;;;23.76;100.00
48846;BME280;34665;51.886;5.436;2022-08-19T02:17:05;101195.38;;;23.72;100.00
48846;BME280;34665;51.886;5.436;2022-08-19T02:19:31;101210.69;;;23.73;100.00
48846;BME280;34665;51.886;5.436;2022-08-19T02:22:00;101199.47;;;23.75;100.00
48846;BME280;34665;51.886;5.436;2022-08-19T02:24:26;101198.94;;;23.68;100.00
48846;BME280;34665;51.886;5.436;2022-08-19T02:26:52;101208.22;;;23.67;100.00
48846;BME280;34665;51.886;5.436;2022-08-19T02:29:19;101204.13;;;23.64;100.00
48846;BME280;34665;51.886;5.436;2022-08-19T02:31:45;101213.97;;;23.55;100.00
48846;BME280;34665;51.886;5.436;2022-08-19T02:34:10;101210.16;;;23.51;100.00
48846;BME280;34665;51.886;5.436;2022-08-19T02:36:36;101221.63;;;23.42;100.00
48846;BME280;34665;51.886;5.436;2022-08-19T02:39:03;101218.63;;;23.33;100.00
48846;BME280;34665;51.886;5.436;2022-08-19T02:41:31;101225.72;;;23.40;100.00
48846;BME280;34665;51.886;5.436;2022-08-19T02:43:59;101209.34;;;23.40;100.00
48846;BME280;34665;51.886;5.436;2022-08-19T02:46:28;101213.16;;;23.28;100.00
48846;BME280;34665;51.886;5.436;2022-08-19T02:48:56;101218.09;;;23.31;100.00
48846;BME280;34665;51.886;5.436;2022-08-19T02:51:26;101218.34;;;23.35;100.00
48846;BME280;34665;51.886;5.436;2022-08-19T02:53:53;101224.88;;;23.39;100.00
48846;BME280;34665;51.886;5.436;2022-08-19T02:56:19;101223.53;;;23.42;100.00
48846;BME280;34665;51.886;5.436;2022-08-19T02:58:45;101221.91;;;23.41;100.00
48846;BME280;34665;51.886;5.436;2022-08-19T03:01:26;101217.78;;;23.23;100.00
48846;BME280;34665;51.886;5.436;2022-08-19T03:03:52;101219.72;;;23.32;100.00
48846;BME280;34665;51.886;5.436;2022-08-19T03:06:18;101227.88;;;23.27;100.00
48846;BME280;34665;51.886;5.436;2022-08-19T03:08:46;101227.38;;;23.30;100.00
48846;BME280;34665;51.886;5.436;2022-08-19T03:13:44;101230.34;;;23.39;100.00
48846;BME280;34665;51.886;5.436;2022-08-19T03:16:10;101225.72;;;23.40;100.00
48846;BME280;34665;51.886;5.436;2022-08-19T03:18:36;101211.53;;;23.43;100.00
48846;BME280;34665;51.886;5.436;2022-08-19T03:21:01;101228.44;;;23.40;100.00
48846;BME280;34665;51.886;5.436;2022-08-19T03:23:27;101219.16;;;23.41;100.00
48846;BME280;34665;51.886;5.436;2022-08-19T03:25:53;101216.44;;;23.41;100.00
48846;BME280;34665;51.886;5.436;2022-08-19T03:28:20;101213.16;;;23.33;100.00
48846;BME280;34665;51.886;5.436;2022-08-19T03:31:00;101214.81;;;23.34;100.00
48846;BME280;34665;51.886;5.436;2022-08-19T03:33:28;101215.06;;;23.33;100.00
48846;BME280;34665;51.886;5.436;2022-08-19T03:38:28;101221.63;;;23.27;100.00
48846;BME280;34665;51.886;5.436;2022-08-19T03:40:53;101224.03;;;23.23;100.00
48846;BME280;34665;51.886;5.436;2022-08-19T03:43:18;101208.50;;;23.24;100.00
48846;BME280;34665;51.886;5.436;2022-08-19T03:45:44;101214.22;;;23.22;100.00
48846;BME280;34665;51.886;5.436;2022-08-19T03:48:10;101220.75;;;23.16;100.00
48846;BME280;34665;51.886;5.436;2022-08-19T03:50:39;101219.38;;;23.13;100.00
48846;BME280;34665;51.886;5.436;2022-08-19T03:53:06;101212.03;;;23.14;100.00
48846;BME280;34665;51.886;5.436;2022-08-19T03:55:32;101218.59;;;23.13;100.00
48846;BME280;34665;51.886;5.436;2022-08-19T03:57:57;101214.75;;;23.14;100.00
48846;BME280;34665;51.886;5.436;2022-08-19T04:00:24;101214.75;;;23.09;100.00
48846;BME280;34665;51.886;5.436;2022-08-19T04:02:49;101216.91;;;23.06;100.00
48846;BME280;34665;51.886;5.436;2022-08-19T04:05:15;101209.03;;;23.05;100.00
48846;BME280;34665;51.886;5.436;2022-08-19T04:07:40;101204.91;;;23.02;100.00
48846;BME280;34665;51.886;5.436;2022-08-19T04:10:06;101207.63;;;22.97;100.00
48846;BME280;34665;51.886;5.436;2022-08-19T04:12:32;101203.28;;;22.96;100.00
48846;BME280;34665;51.886;5.436;2022-08-19T04:14:57;101198.91;;;22.95;100.00
48846;BME280;34665;51.886;5.436;2022-08-19T04:17:23;101197.81;;;22.91;100.00
48846;BME280;34665;51.886;5.436;2022-08-19T04:19:49;101198.38;;;22.88;100.00
48846;BME280;34665;51.886;5.436;2022-08-19T04:22:14;101207.09;;;22.90;100.00
48846;BME280;34665;51.886;5.436;2022-08-19T04:24:40;101207.09;;;22.90;100.00
48846;BME280;34665;51.886;5.436;2022-08-19T04:27:06;101206.00;;;22.86;100.00
48846;BME280;34665;51.886;5.436;2022-08-19T04:29:32;101199.72;;;22.80;100.00
48846;BME280;34665;51.886;5.436;2022-08-19T04:31:59;101190.19;;;22.88;100.00
48846;BME280;34665;51.886;5.436;2022-08-19T04:34:26;101190.44;;;22.86;100.00
48846;BME280;34665;51.886;5.436;2022-08-19T04:36:54;101196.19;;;22.90;100.00
48846;BME280;34665;51.886;5.436;2022-08-19T04:39:23;101190.72;;;22.95;100.00
48846;BME280;34665;51.886;5.436;2022-08-19T04:42:10;101196.72;;;22.92;100.00
48846;BME280;34665;51.886;5.436;2022-08-19T04:44:55;101197.28;;;22.99;100.00
48846;BME280;34665;51.886;5.436;2022-08-19T04:47:20;101203.81;;;22.98;100.00
48846;BME280;34665;51.886;5.436;2022-08-19T04:49:46;101195.94;;;23.02;100.00
48846;BME280;34665;51.886;5.436;2022-08-19T04:52:11;101197.56;;;22.98;100.00
48846;BME280;34665;51.886;5.436;2022-08-19T04:54:37;101200.00;;;22.99;100.00
48846;BME280;34665;51.886;5.436;2022-08-19T04:57:02;101204.38;;;23.00;100.00
48846;BME280;34665;51.886;5.436;2022-08-19T04:59:28;101196.72;;;22.92;100.00
48846;BME280;34665;51.886;5.436;2022-08-19T05:01:53;101204.91;;;22.87;100.00
48846;BME280;34665;51.886;5.436;2022-08-19T05:04:20;101208.13;;;22.73;100.00
48846;BME280;34665;51.886;5.436;2022-08-19T05:06:48;101208.38;;;22.67;100.00
48846;BME280;34665;51.886;5.436;2022-08-19T05:09:14;101212.06;;;22.34;100.00
48846;BME280;34665;51.886;5.436;2022-08-19T05:11:42;101220.06;;;22.46;100.00
48846;BME280;34665;51.886;5.436;2022-08-19T05:14:08;101217.22;;;22.31;100.00
48846;BME280;34665;51.886;5.436;2022-08-19T05:16:34;101223.75;;;22.25;100.00
48846;BME280;34665;51.886;5.436;2022-08-19T05:19:00;101229.09;;;22.09;100.00
48846;BME280;34665;51.886;5.436;2022-08-19T05:21:45;101235.53;;;22.41;100.00
48846;BME280;34665;51.886;5.436;2022-08-19T05:24:30;101239.56;;;22.33;100.00
48846;BME280;34665;51.886;5.436;2022-08-19T05:27:00;101242.34;;;22.43;100.00
48846;BME280;34665;51.886;5.436;2022-08-19T05:29:29;101235.88;;;22.55;100.00
48846;BME280;34665;51.886;5.436;2022-08-19T05:31:57;101243.00;;;22.61;100.00
48846;BME280;34665;51.886;5.436;2022-08-19T05:34:25;101243.16;;;22.39;100.00
48846;BME280;34665;51.886;5.436;2022-08-19T05:36:53;101246.66;;;22.34;100.00
48846;BME280;34665;51.886;5.436;2022-08-19T05:39:21;101247.50;;;22.40;100.00
48846;BME280;34665;51.886;5.436;2022-08-19T05:41:51;101255.66;;;22.34;100.00
48846;BME280;34665;51.886;5.436;2022-08-19T05:44:19;101244.06;;;22.55;100.00
48846;BME280;34665;51.886;5.436;2022-08-19T05:46:45;101241.09;;;22.67;100.00
48846;BME280;34665;51.886;5.436;2022-08-19T05:49:12;101242.41;;;22.54;100.00
48846;BME280;34665;51.886;5.436;2022-08-19T05:51:39;101240.13;;;22.35;100.00
48846;BME280;34665;51.886;5.436;2022-08-19T05:54:06;101243.59;;;22.78;100.00
48846;BME280;34665;51.886;5.436;2022-08-19T05:56:34;101252.81;;;22.62;100.00
48846;BME280;34665;51.886;5.436;2022-08-19T05:59:08;101256.66;;;22.66;100.00
48846;BME280;34665;51.886;5.436;2022-08-19T06:01:39;101247.09;;;22.63;100.00
48846;BME280;34665;51.886;5.436;2022-08-19T06:04:05;101252.84;;;22.77;100.00
48846;BME280;34665;51.886;5.436;2022-08-19T06:06:32;101253.41;;;22.74;100.00
48846;BME280;34665;51.886;5.436;2022-08-19T06:09:00;101247.44;;;22.93;100.00
48846;BME280;34665;51.886;5.436;2022-08-19T06:12:10;101255.03;;;22.75;100.00
48846;BME280;34665;51.886;5.436;2022-08-19T06:14:32;101252.13;;;23.03;100.00
48846;BME280;34665;51.886;5.436;2022-08-19T06:17:00;101244.72;;;22.93;100.00
48846;BME280;34665;51.886;5.436;2022-08-19T06:19:28;101245.53;;;22.94;100.00
48846;BME280;34665;51.886;5.436;2022-08-19T06:21:55;101252.13;;;23.13;100.00
48846;BME280;34665;51.886;5.436;2022-08-19T06:24:24;101244.44;;;22.84;100.00
48846;BME280;34665;51.886;5.436;2022-08-19T06:26:51;101240.34;;;22.87;100.00
48846;BME280;34665;51.886;5.436;2022-08-19T06:29:17;101236.78;;;22.86;100.00
48846;BME280;34665;51.886;5.436;2022-08-19T06:31:46;101244.69;;;22.83;100.00
48846;BME280;34665;51.886;5.436;2022-08-19T06:34:15;101245.63;;;23.35;100.00
48846;BME280;34665;51.886;5.436;2022-08-19T06:36:44;101248.28;;;22.99;100.00
48846;BME280;34665;51.886;5.436;2022-08-19T06:39:16;101253.53;;;23.26;100.00
48846;BME280;34665;51.886;5.436;2022-08-19T06:41:44;101237.97;;;23.22;100.00
48846;BME280;34665;51.886;5.436;2022-08-19T06:44:16;101249.44;;;23.60;100.00
48846;BME280;34665;51.886;5.436;2022-08-19T06:46:43;101254.63;;;23.51;100.00
48846;BME280;34665;51.886;5.436;2022-08-19T06:49:09;101261.09;;;22.98;100.00
48846;BME280;34665;51.886;5.436;2022-08-19T06:51:44;101258.38;;;23.03;100.00
48846;BME280;34665;51.886;5.436;2022-08-19T06:54:10;101250.25;;;23.29;100.00
48846;BME280;34665;51.886;5.436;2022-08-19T06:56:36;101249.72;;;23.58;100.00
48846;BME280;34665;51.886;5.436;2022-08-19T06:59:04;101251.38;;;23.59;100.00
48846;BME280;34665;51.886;5.436;2022-08-19T07:01:34;101252.19;;;23.49;100.00
48846;BME280;34665;51.886;5.436;2022-08-19T07:04:00;101257.63;;;23.60;100.00
48846;BME280;34665;51.886;5.436;2022-08-19T07:06:25;101271.56;;;23.38;100.00
48846;BME280;34665;51.886;5.436;2022-08-19T07:08:50;101263.09;;;23.44;100.00
48846;BME280;34665;51.886;5.436;2022-08-19T07:11:17;101263.09;;;23.39;100.00
48846;BME280;34665;51.886;5.436;2022-08-19T07:13:44;101263.63;;;23.83;100.00
48846;BME280;34665;51.886;5.436;2022-08-19T07:16:14;101267.13;;;24.19;100.00
48846;BME280;34665;51.886;5.436;2022-08-19T07:18:40;101265.81;;;23.91;100.00
48846;BME280;34665;51.886;5.436;2022-08-19T07:21:24;101263.88;;;23.91;100.00
48846;BME280;34665;51.886;5.436;2022-08-19T07:23:52;101263.00;;;24.32;100.00
48846;BME280;34665;51.886;5.436;2022-08-19T07:26:28;101260.03;;;24.24;100.00
48846;BME280;34665;51.886;5.436;2022-08-19T07:28:54;101263.34;;;23.84;100.00
48846;BME280;34665;51.886;5.436;2022-08-19T07:31:22;101259.78;;;23.99;100.00
48846;BME280;34665;51.886;5.436;2022-08-19T07:33:50;101258.41;;;24.12;100.00
48846;BME280;34665;51.886;5.436;2022-08-19T07:36:19;101258.88;;;24.40;100.00
48846;BME280;34665;51.886;5.436;2022-08-19T07:38:47;101256.13;;;24.51;100.00
48846;BME280;34665;51.886;5.436;2022-08-19T07:41:17;101269.38;;;23.81;100.00
48846;BME280;34665;51.886;5.436;2022-08-19T07:43:43;101264.19;;;23.90;100.00
48846;BME280;34665;51.886;5.436;2022-08-19T07:46:10;101273.75;;;23.36;100.00
48846;BME280;34665;51.886;5.436;2022-08-19T07:48:36;101280.81;;;23.73;100.00
48846;BME280;34665;51.886;5.436;2022-08-19T07:51:04;101271.25;;;23.96;100.00
48846;BME280;34665;51.886;5.436;2022-08-19T07:53:32;101275.31;;;24.30;100.00
48846;BME280;34665;51.886;5.436;2022-08-19T07:55:58;101278.56;;;24.37;100.00
48846;BME280;34665;51.886;5.436;2022-08-19T07:58:27;101279.47;;;24.01;100.00
48846;BME280;34665;51.886;5.436;2022-08-19T08:00:53;101284.56;;;24.39;100.00
48846;BME280;34665;51.886;5.436;2022-08-19T08:03:21;101290.94;;;23.88;100.00
48846;BME280;34665;51.886;5.436;2022-08-19T08:06:08;101298.34;;;23.77;100.00
48846;BME280;34665;51.886;5.436;2022-08-19T08:08:52;101299.69;;;24.11;100.00
48846;BME280;34665;51.886;5.436;2022-08-19T08:11:42;101307.03;;;23.89;100.00
48846;BME280;34665;51.886;5.436;2022-08-19T08:14:08;101298.75;;;24.52;100.00
48846;BME280;34665;51.886;5.436;2022-08-19T08:16:37;101297.56;;;24.79;100.00
48846;BME280;34665;51.886;5.436;2022-08-19T08:19:04;101301.41;;;24.77;100.00
48846;BME280;34665;51.886;5.436;2022-08-19T08:21:32;101310.47;;;24.62;100.00
48846;BME280;34665;51.886;5.436;2022-08-19T08:23:58;101320.19;;;24.03;100.00
48846;BME280;34665;51.886;5.436;2022-08-19T08:26:24;101318.78;;;24.05;100.00
48846;BME280;34665;51.886;5.436;2022-08-19T08:28:51;101313.19;;;24.62;100.00
48846;BME280;34665;51.886;5.436;2022-08-19T08:31:16;101326.59;;;24.69;100.00
48846;BME280;34665;51.886;5.436;2022-08-19T08:33:44;101323.19;;;24.98;100.00
48846;BME280;34665;51.886;5.436;2022-08-19T08:36:11;101319.38;;;24.89;100.00
48846;BME280;34665;51.886;5.436;2022-08-19T08:38:39;101330.28;;;25.44;100.00
48846;BME280;34665;51.886;5.436;2022-08-19T08:41:13;101330.34;;;24.84;100.00
48846;BME280;34665;51.886;5.436;2022-08-19T08:43:45;101339.41;;;24.74;100.00
48846;BME280;34665;51.886;5.436;2022-08-19T08:46:16;101340.16;;;24.90;100.00
48846;BME280;34665;51.886;5.436;2022-08-19T08:49:00;101340.75;;;24.82;100.00
48846;BME280;34665;51.886;5.436;2022-08-19T08:51:37;101334.63;;;25.05;100.00
48846;BME280;34665;51.886;5.436;2022-08-19T08:54:10;101333.94;;;25.29;100.00
48846;BME280;34665;51.886;5.436;2022-08-19T08:56:39;101331.06;;;25.10;100.00
48846;BME280;34665;51.886;5.436;2022-08-19T08:59:20;101344.09;;;25.29;100.00
48846;BME280;34665;51.886;5.436;2022-08-19T09:01:46;101345.28;;;25.12;100.00
48846;BME280;34665;51.886;5.436;2022-08-19T09:04:12;101351.59;;;25.58;100.00
48846;BME280;34665;51.886;5.436;2022-08-19T09:09:32;101338.59;;;25.74;100.00
48846;BME280;34665;51.886;5.436;2022-08-19T09:12:34;101340.06;;;25.96;100.00
48846;BME280;34665;51.886;5.436;2022-08-19T09:15:07;101342.50;;;26.75;100.00
48846;BME280;34665;51.886;5.436;2022-08-19T09:17:34;101340.41;;;26.18;100.00
48846;BME280;34665;51.886;5.436;2022-08-19T09:20:23;101336.53;;;26.49;100.00
48846;BME280;34665;51.886;5.436;2022-08-19T09:22:49;101333.66;;;26.84;100.00
48846;BME280;34665;51.886;5.436;2022-08-19T09:25:18;101337.25;;;27.23;100.00
48846;BME280;34665;51.886;5.436;2022-08-19T09:27:48;101340.56;;;27.77;100.00
48846;BME280;34665;51.886;5.436;2022-08-19T09:30:18;101345.75;;;28.12;100.00
48846;BME280;34665;51.886;5.436;2022-08-19T09:32:44;101349.06;;;27.61;100.00
48846;BME280;34665;51.886;5.436;2022-08-19T09:35:11;101346.13;;;26.95;100.00
48846;BME280;34665;51.886;5.436;2022-08-19T09:37:43;101341.59;;;26.85;100.00
48846;BME280;34665;51.886;5.436;2022-08-19T09:40:09;101355.44;;;27.76;100.00
48846;BME280;34665;51.886;5.436;2022-08-19T09:42:37;101354.13;;;28.76;100.00
48846;BME280;34665;51.886;5.436;2022-08-19T09:45:03;101358.09;;;27.81;100.00
48846;BME280;34665;51.886;5.436;2022-08-19T09:47:30;101359.84;;;27.91;100.00
48846;BME280;34665;51.886;5.436;2022-08-19T09:49:58;101350.56;;;27.54;100.00
48846;BME280;34665;51.886;5.436;2022-08-19T09:52:23;101352.84;;;27.46;100.00
48846;BME280;34665;51.886;5.436;2022-08-19T09:54:52;101358.78;;;27.54;100.00
48846;BME280;34665;51.886;5.436;2022-08-19T09:57:18;101361.94;;;27.80;100.00
48846;BME280;34665;51.886;5.436;2022-08-19T09:59:44;101358.41;;;27.41;100.00
48846;BME280;34665;51.886;5.436;2022-08-19T10:02:10;101360.66;;;27.39;100.00
48846;BME280;34665;51.886;5.436;2022-08-19T10:04:36;101349.78;;;27.29;100.00
48846;BME280;34665;51.886;5.436;2022-08-19T10:07:20;101356.22;;;26.75;100.00
48846;BME280;34665;51.886;5.436;2022-08-19T10:09:47;101359.63;;;26.67;100.00
48846;BME280;34665;51.886;5.436;2022-08-19T10:12:12;101360.34;;;26.54;100.00
48846;BME280;34665;51.886;5.436;2022-08-19T10:14:39;101365.69;;;26.40;100.00
48846;BME280;34665;51.886;5.436;2022-08-19T10:17:04;101364.75;;;26.49;100.00
48846;BME280;34665;51.886;5.436;2022-08-19T10:19:30;101364.19;;;26.53;100.00
48846;BME280;34665;51.886;5.436;2022-08-19T10:21:57;101348.19;;;26.60;100.00
48846;BME280;34665;51.886;5.436;2022-08-19T10:24:23;101350.94;;;26.60;100.00
48846;BME280;34665;51.886;5.436;2022-08-19T10:26:49;101353.59;;;27.14;100.00
48846;BME280;34665;51.886;5.436;2022-08-19T10:29:14;101356.25;;;27.00;100.00
48846;BME280;34665;51.886;5.436;2022-08-19T10:31:42;101351.22;;;26.83;100.00
48846;BME280;34665;51.886;5.436;2022-08-19T10:34:07;101343.78;;;27.27;100.00
48846;BME280;34665;51.886;5.436;2022-08-19T10:36:33;101344.59;;;26.89;100.00
48846;BME280;34665;51.886;5.436;2022-08-19T10:39:04;101349.94;;;26.99;100.00
48846;BME280;34665;51.886;5.436;2022-08-19T10:41:32;101350.97;;;27.42;100.00
48846;BME280;34665;51.886;5.436;2022-08-19T10:44:01;101349.00;;;27.28;100.00
48846;BME280;34665;51.886;5.436;2022-08-19T10:46:28;101351.28;;;27.59;100.00
48846;BME280;34665;51.886;5.436;2022-08-19T10:48:58;101344.56;;;27.85;100.00
48846;BME280;34665;51.886;5.436;2022-08-19T10:51:24;101345.91;;;28.21;100.00
48846;BME280;34665;51.886;5.436;2022-08-19T10:54:08;101348.53;;;28.26;100.00
48846;BME280;34665;51.886;5.436;2022-08-19T10:56:34;101339.88;;;28.74;100.00
48846;BME280;34665;51.886;5.436;2022-08-19T10:59:27;101338.47;;;28.77;100.00
48846;BME280;34665;51.886;5.436;2022-08-19T11:01:54;101344.53;;;29.75;100.00
48846;BME280;34665;51.886;5.436;2022-08-19T11:04:24;101348.72;;;29.36;100.00
48846;BME280;34665;51.886;5.436;2022-08-19T11:06:49;101348.31;;;30.52;100.00
48846;BME280;34665;51.886;5.436;2022-08-19T11:09:22;101342.63;;;31.59;100.00
48846;BME280;34665;51.886;5.436;2022-08-19T11:11:52;101346.06;;;31.38;100.00
48846;BME280;34665;51.886;5.436;2022-08-19T11:14:19;101342.50;;;31.29;100.00
48846;BME280;34665;51.886;5.436;2022-08-19T11:16:46;101348.41;;;30.87;100.00
48846;BME280;34665;51.886;5.436;2022-08-19T11:19:12;101349.91;;;30.03;100.00
48846;BME280;34665;51.886;5.436;2022-08-19T11:21:43;101351.25;;;29.24;100.00
48846;BME280;34665;51.886;5.436;2022-08-19T11:24:19;101337.28;;;29.20;100.00
48846;BME280;34665;51.886;5.436;2022-08-19T11:26:46;101348.72;;;29.50;100.00
48846;BME280;34665;51.886;5.436;2022-08-19T11:29:13;101339.34;;;31.13;100.00
48846;BME280;34665;51.886;5.436;2022-08-19T11:31:42;101350.53;;;32.43;100.00
48846;BME280;34665;51.886;5.436;2022-08-19T11:34:11;101355.03;;;33.08;100.00
48846;BME280;34665;51.886;5.436;2022-08-19T11:36:40;101342.50;;;33.66;100.00
48846;BME280;34665;51.886;5.436;2022-08-19T11:39:08;101349.66;;;33.67;100.00
48846;BME280;34665;51.886;5.436;2022-08-19T11:41:35;101346.31;;;34.44;100.00
48846;BME280;34665;51.886;5.436;2022-08-19T11:44:02;101337.53;;;34.05;100.00
48846;BME280;34665;51.886;5.436;2022-08-19T11:46:28;101332.09;;;34.71;100.00
48846;BME280;34665;51.886;5.436;2022-08-19T11:48:56;101335.28;;;33.86;100.00
48846;BME280;34665;51.886;5.436;2022-08-19T11:51:25;101333.03;;;32.91;100.00
48846;BME280;34665;51.886;5.436;2022-08-19T11:53:55;101328.09;;;33.17;100.00
48846;BME280;34665;51.886;5.436;2022-08-19T11:56:22;101327.84;;;34.49;100.00
48846;BME280;34665;51.886;5.436;2022-08-19T11:58:49;101334.78;;;34.17;100.00
48846;BME280;34665;51.886;5.436;2022-08-19T12:01:17;101328.84;;;33.60;100.00
48846;BME280;34665;51.886;5.436;2022-08-19T12:03:44;101329.63;;;33.95;100.00
48846;BME280;34665;51.886;5.436;2022-08-19T12:06:14;101334.22;;;33.78;100.00
48846;BME280;34665;51.886;5.436;2022-08-19T12:08:41;101331.19;;;34.54;100.00
48846;BME280;34665;51.886;5.436;2022-08-19T12:11:07;101334.75;;;34.42;100.00
48846;BME280;34665;51.886;5.436;2022-08-19T12:13:36;101332.84;;;33.84;100.00
48846;BME280;34665;51.886;5.436;2022-08-19T12:16:11;101329.88;;;33.35;100.00
48846;BME280;34665;51.886;5.436;2022-08-19T12:18:38;101327.13;;;33.35;100.00
48846;BME280;34665;51.886;5.436;2022-08-19T12:21:03;101328.97;;;32.58;100.00
48846;BME280;34665;51.886;5.436;2022-08-19T12:23:29;101324.06;;;31.77;100.00
48846;BME280;34665;51.886;5.436;2022-08-19T12:25:56;101317.53;;;31.73;100.00
48846;BME280;34665;51.886;5.436;2022-08-19T12:28:24;101312.06;;;31.55;100.00
48846;BME280;34665;51.886;5.436;2022-08-19T12:30:50;101308.81;;;31.18;100.00
48846;BME280;34665;51.886;5.436;2022-08-19T12:33:17;101308.34;;;30.40;100.00
48846;BME280;34665;51.886;5.436;2022-08-19T12:35:44;101311.59;;;30.42;100.00
48846;BME280;34665;51.886;5.436;2022-08-19T12:38:13;101311.63;;;30.51;100.00
48846;BME280;34665;51.886;5.436;2022-08-19T12:40:39;101299.88;;;30.28;100.00
48846;BME280;34665;51.886;5.436;2022-08-19T12:43:06;101306.75;;;30.48;100.00
48846;BME280;34665;51.886;5.436;2022-08-19T12:45:32;101299.41;;;30.26;100.00
48846;BME280;34665;51.886;5.436;2022-08-19T12:47:58;101302.50;;;30.33;100.00
48846;BME280;34665;51.886;5.436;2022-08-19T12:50:24;101297.53;;;29.81;100.00
48846;BME280;34665;51.886;5.436;2022-08-19T12:52:50;101304.81;;;29.76;100.00
48846;BME280;34665;51.886;5.436;2022-08-19T12:55:15;101300.97;;;29.86;100.00